Alum Creek, West Virginia
Current Conditions -  °F | °C
As of 8:54 PM on Thursday 20 Nov 2014 (Local Time) from KCRW Reporting Station
Clear Clear  
Wind Chill: -5°   Ceiling: Unl
Heat Index: -1°   Visibility: 10mi
Dew Point: -10°   Wind: 8mph
Humidity: 51%   Direction: 270°W
Pressure: 30.18"   Gusts: NA
Location:  38.28°N, 81.84°W
Report Text: KCRW 210154Z 27007KT 10SM CLR M01/M10 A3018 RMK AO2 SLP227 T10111100
Loading
Personal Weather Stations






























Interactive Weather Map New forecast layout! Learn more

10-Day Weather Forecast

Advertisements
Track Severe Weather on mobile